Time;durP1;ratioP1;P1;durP2;ratioP2;P2;SDS_P1;SDS_P2;PMS_P1;PMS_P2;Temp;Humidity;BMP_temperature;BMP_pressure;BME280_temperature;BME280_humidity;BME280_pressure;Samples;Min_cycle;Max_cycle;Signal;HPM_P1;HPM_P2
2022/09/09 00:00:15;;;;;;;;;;;;;;;15.17;89.68;100784.66;5031375;28;19913;-34
2022/09/09 00:02:44;;;;;;;;;;;;;;;15.09;91.12;100760.66;5030706;28;19920;-35
2022/09/09 00:05:41;;;;;;;;;;;;;;;15.08;90.75;100781.63;5030590;28;19919;-34
2022/09/09 00:08:09;;;;;;;;;;;;;;;15.03;90.71;100776.16;4991838;28;19924;-35
2022/09/09 00:10:39;;;;;;;;;;;;;;;15.01;90.43;100767.41;4991504;28;19992;-34
2022/09/09 00:13:15;;;;;;;;;;;;;;;15.00;90.51;100771.22;4991992;28;19914;-34
2022/09/09 00:15:47;;;;;;;;;;;;;;;14.97;91.99;100771.72;4991256;28;19914;-34
2022/09/09 00:18:14;;;;;;;;;;;;;;;14.96;91.17;100772.00;4991374;28;19944;-34
2022/09/09 00:21:02;;;;;;;;;;;;;;;14.97;90.97;100765.47;4991062;28;20397;-34
2022/09/09 00:23:29;;;;;;;;;;;;;;;14.94;90.88;100762.19;4991067;28;19918;-34
2022/09/09 00:26:12;;;;;;;;;;;;;;;14.91;91.18;100759.19;5061976;28;19912;-34
2022/09/09 00:28:41;;;;;;;;;;;;;;;14.90;90.43;100757.53;5072438;28;19916;-34
2022/09/09 00:31:15;;;;;;;;;;;;;;;14.89;91.06;100762.16;5073865;28;19913;-34
2022/09/09 00:33:42;;;;;;;;;;;;;;;14.87;90.60;100767.03;5074199;28;20003;-34
2022/09/09 00:36:13;;;;;;;;;;;;;;;14.87;90.51;100766.22;5073874;28;19982;-35
2022/09/09 00:38:41;;;;;;;;;;;;;;;14.85;90.26;100762.94;5074088;28;19916;-35
2022/09/09 00:41:11;;;;;;;;;;;;;;;14.85;90.80;100762.94;5074031;28;19912;-34
2022/09/09 00:43:37;;;;;;;;;;;;;;;14.84;90.49;100751.25;5094096;28;19911;-35
2022/09/09 00:46:23;;;;;;;;;;;;;;;14.84;91.32;100753.97;5116851;28;19912;-35
2022/09/09 00:48:59;;;;;;;;;;;;;;;14.79;91.75;100747.66;5117275;28;19916;-34
2022/09/09 00:51:39;;;;;;;;;;;;;;;14.74;91.85;100744.88;5116965;28;19912;-35
2022/09/09 00:54:13;;;;;;;;;;;;;;;14.71;91.78;100739.97;5117057;28;19915;-35
2022/09/09 00:56:44;;;;;;;;;;;;;;;14.69;92.89;100737.53;5117372;28;19916;-35
2022/09/09 00:59:21;;;;;;;;;;;;;;;14.68;92.57;100730.41;5116690;28;19911;-35
2022/09/09 01:01:47;;;;;;;;;;;;;;;14.63;92.30;100733.91;5116464;28;19937;-35
2022/09/09 01:04:16;;;;;;;;;;;;;;;14.62;93.76;100736.91;5116809;28;19990;-35
2022/09/09 01:06:43;;;;;;;;;;;;;;;14.57;92.90;100731.44;5116267;28;20291;-35
2022/09/09 01:09:08;;;;;;;;;;;;;;;14.57;92.66;100739.59;5116943;28;19915;-35
2022/09/09 01:11:52;;;;;;;;;;;;;;;14.55;92.45;100742.59;5116454;28;19938;-35
2022/09/09 01:14:34;;;;;;;;;;;;;;;14.53;92.96;100739.28;5116926;28;19912;-35
2022/09/09 01:17:14;;;;;;;;;;;;;;;14.54;92.20;100740.09;5116854;28;19916;-35
2022/09/09 01:19:42;;;;;;;;;;;;;;;14.54;92.02;100735.50;5116193;28;20422;-35
2022/09/09 01:22:19;;;;;;;;;;;;;;;14.55;92.61;100731.69;5116590;28;19967;-34
2022/09/09 01:25:10;;;;;;;;;;;;;;;14.57;91.86;100745.84;5116202;28;20260;-34
2022/09/09 01:27:36;;;;;;;;;;;;;;;14.54;93.80;100735.50;5033208;28;19917;-35
2022/09/09 01:30:04;;;;;;;;;;;;;;;14.54;93.14;100738.22;5033697;28;19920;-35
2022/09/09 01:32:41;;;;;;;;;;;;;;;14.53;93.74;100735.75;5033975;28;20306;-35
2022/09/09 01:35:10;;;;;;;;;;;;;;;14.51;94.22;100738.72;5032975;28;19963;-35
2022/09/09 01:37:36;;;;;;;;;;;;;;;14.51;94.26;100733.28;5032930;28;19921;-34
2022/09/09 01:40:01;;;;;;;;;;;;;;;14.51;93.28;100724.31;5031928;28;20016;-35
2022/09/09 01:42:26;;;;;;;;;;;;;;;14.53;92.81;100735.75;5032862;28;19913;-34
2022/09/09 01:44:54;;;;;;;;;;;;;;;14.53;92.36;100722.13;5032849;28;19979;-34
2022/09/09 01:47:19;;;;;;;;;;;;;;;14.52;92.67;100726.75;5032806;28;20000;-35
2022/09/09 01:49:44;;;;;;;;;;;;;;;14.51;93.54;100725.13;5032636;28;20440;-35
2022/09/09 01:52:09;;;;;;;;;;;;;;;14.49;94.32;100721.84;5033084;28;19913;-35
2022/09/09 01:54:35;;;;;;;;;;;;;;;14.50;93.35;100733.56;5032586;28;20308;-34
2022/09/09 01:57:19;;;;;;;;;;;;;;;14.50;95.44;100730.84;5033114;28;19912;-34
2022/09/09 01:59:53;;;;;;;;;;;;;;;14.44;93.98;100724.47;5032518;28;19913;-34
2022/09/09 02:02:23;;;;;;;;;;;;;;;14.46;93.48;100721.53;5032752;28;20352;-35
2022/09/09 02:05:08;;;;;;;;;;;;;;;14.40;94.44;100713.31;5089095;28;20359;-34
2022/09/09 02:07:41;;;;;;;;;;;;;;;14.39;93.65;100714.38;5032187;28;19924;-35
2022/09/09 02:10:25;;;;;;;;;;;;;;;14.39;93.55;100716.28;5016050;28;19964;-35
2022/09/09 02:12:55;;;;;;;;;;;;;;;14.41;93.33;100711.41;5032879;28;20004;-35
2022/09/09 02:15:30;;;;;;;;;;;;;;;14.42;92.37;100710.31;5032736;28;19944;-35
2022/09/09 02:17:57;;;;;;;;;;;;;;;14.44;93.00;100708.16;5032050;28;19917;-34
2022/09/09 02:20:24;;;;;;;;;;;;;;;14.41;93.29;100703.25;5032263;28;20063;-34
2022/09/09 02:22:50;;;;;;;;;;;;;;;14.37;94.79;100700.22;5032749;28;19967;-35
2022/09/09 02:25:17;;;;;;;;;;;;;;;14.36;93.42;100703.22;5031964;28;20306;-34
2022/09/09 02:27:45;;;;;;;;;;;;;;;14.38;93.80;100699.13;5032206;28;19913;-34
2022/09/09 02:30:11;;;;;;;;;;;;;;;14.38;93.91;100701.03;5031971;28;19913;-34
2022/09/09 02:32:39;;;;;;;;;;;;;;;14.37;93.57;100697.50;5031999;28;19959;-35
2022/09/09 02:35:07;;;;;;;;;;;;;;;14.36;93.29;100697.78;5031913;28;20015;-35
2022/09/09 02:37:36;;;;;;;;;;;;;;;14.34;93.05;100698.00;5031814;28;19913;-34
2022/09/09 02:40:05;;;;;;;;;;;;;;;14.33;94.59;100698.28;5031624;28;19920;-34
2022/09/09 02:42:30;;;;;;;;;;;;;;;14.32;94.49;100702.09;5031625;28;19952;-35
2022/09/09 02:44:55;;;;;;;;;;;;;;;14.31;93.69;100700.44;5082635;28;19912;-34
2022/09/09 02:47:28;;;;;;;;;;;;;;;14.31;95.60;100697.72;5114745;28;20267;-35
2022/09/09 02:50:12;;;;;;;;;;;;;;;14.30;95.19;100698.78;5114779;28;20282;-35
2022/09/09 02:52:37;;;;;;;;;;;;;;;14.30;94.35;100701.50;5114903;28;20025;-34
2022/09/09 02:55:17;;;;;;;;;;;;;;;14.30;94.12;100705.06;5114967;28;19957;-35
2022/09/09 02:57:43;;;;;;;;;;;;;;;14.32;93.76;100711.06;5114481;28;20355;-35
2022/09/09 03:00:09;;;;;;;;;;;;;;;14.33;93.78;100701.81;5113966;28;19912;-35
2022/09/09 03:02:34;;;;;;;;;;;;;;;14.32;93.92;100716.50;5114240;28;20209;-34
2022/09/09 03:04:59;;;;;;;;;;;;;;;14.32;95.54;100705.63;5114138;28;19918;-34
2022/09/09 03:07:25;;;;;;;;;;;;;;;14.31;94.29;100714.88;5114809;28;19942;-35
2022/09/09 03:09:50;;;;;;;;;;;;;;;14.31;94.73;100711.34;5113989;28;19912;-35
2022/09/09 03:12:16;;;;;;;;;;;;;;;14.31;94.27;100714.06;5112990;28;19915;-35
2022/09/09 03:14:41;;;;;;;;;;;;;;;14.33;94.27;100712.69;5114588;28;19920;-34
2022/09/09 03:17:06;;;;;;;;;;;;;;;14.34;96.90;100713.53;5114294;28;19937;-34
2022/09/09 03:19:32;;;;;;;;;;;;;;;14.30;95.46;100706.94;5113684;28;19912;-35
2022/09/09 03:21:58;;;;;;;;;;;;;;;14.28;94.56;100706.41;5114209;28;19911;-34
2022/09/09 03:24:23;;;;;;;;;;;;;;;14.26;95.82;100706.66;5113550;28;19956;-34
2022/09/09 03:26:50;;;;;;;;;;;;;;;14.25;93.80;100706.91;5113928;28;19911;-35
2022/09/09 03:29:16;;;;;;;;;;;;;;;14.28;93.59;100711.84;5114256;28;19923;-35
2022/09/09 03:31:42;;;;;;;;;;;;;;;14.26;94.98;100714.81;5113997;28;19916;-34
2022/09/09 03:34:08;;;;;;;;;;;;;;;14.26;94.28;100712.09;5113671;28;19918;-34
2022/09/09 03:36:33;;;;;;;;;;;;;;;14.25;94.39;100713.19;5113923;28;19912;-34
2022/09/09 03:38:59;;;;;;;;;;;;;;;14.26;95.24;100714.00;5114069;28;19912;-34
2022/09/09 03:41:24;;;;;;;;;;;;;;;14.25;95.74;100721.34;5113988;28;19911;-35
2022/09/09 03:43:50;;;;;;;;;;;;;;;14.25;95.55;100715.06;5113434;28;20390;-34
2022/09/09 03:46:16;;;;;;;;;;;;;;;14.25;95.87;100712.34;5113968;28;20244;-35
2022/09/09 03:48:41;;;;;;;;;;;;;;;14.25;95.17;100709.63;5114466;28;19911;-35
2022/09/09 03:51:06;;;;;;;;;;;;;;;14.25;94.79;100707.75;5113285;28;19934;-35
2022/09/09 03:53:31;;;;;;;;;;;;;;;14.28;94.40;100709.13;5114105;28;19915;-34
2022/09/09 03:55:59;;;;;;;;;;;;;;;14.30;94.31;100713.22;5113620;28;19919;-34
2022/09/09 03:58:26;;;;;;;;;;;;;;;14.31;94.11;100700.44;5113897;28;20133;-35
2022/09/09 04:00:56;;;;;;;;;;;;;;;14.33;94.24;100706.44;5113502;28;19928;-34
2022/09/09 04:03:22;;;;;;;;;;;;;;;14.33;94.25;100701.81;5116013;28;20002;-34
2022/09/09 04:05:48;;;;;;;;;;;;;;;14.33;94.39;100695.56;5117837;28;19912;-35
2022/09/09 04:08:14;;;;;;;;;;;;;;;14.31;94.14;100697.72;5118008;28;20349;-34
2022/09/09 04:10:39;;;;;;;;;;;;;;;14.31;93.81;100697.72;5117416;28;20069;-35
2022/09/09 04:13:04;;;;;;;;;;;;;;;14.30;94.88;100696.06;5116503;28;20271;-34
2022/09/09 04:15:30;;;;;;;;;;;;;;;14.30;94.05;100696.06;5116192;28;19964;-34
2022/09/09 04:17:56;;;;;;;;;;;;;;;14.28;94.27;100692.81;5117741;28;20022;-34
2022/09/09 04:20:21;;;;;;;;;;;;;;;14.26;94.72;100684.09;5117260;28;19911;-34
2022/09/09 04:22:47;;;;;;;;;;;;;;;14.26;95.05;100689.53;5117573;28;19912;-34
2022/09/09 04:25:12;;;;;;;;;;;;;;;14.25;94.41;100693.31;5116090;28;19961;-35
2022/09/09 04:27:37;;;;;;;;;;;;;;;14.24;94.57;100689.78;5117265;28;20378;-35
2022/09/09 04:30:03;;;;;;;;;;;;;;;14.24;95.91;100687.06;5117036;28;19923;-35
2022/09/09 04:32:28;;;;;;;;;;;;;;;14.24;96.37;100697.94;5117906;28;20243;-34
2022/09/09 04:34:53;;;;;;;;;;;;;;;14.23;96.54;100690.03;5117333;28;19920;-35
2022/09/09 04:37:18;;;;;;;;;;;;;;;14.22;97.96;100694.66;5117265;28;20276;-35
2022/09/09 04:39:44;;;;;;;;;;;;;;;14.21;96.99;100689.50;5117221;28;20330;-35
2022/09/09 04:42:10;;;;;;;;;;;;;;;14.23;95.99;100688.13;5117143;28;20044;-34
2022/09/09 04:44:35;;;;;;;;;;;;;;;14.27;97.82;100688.44;5117352;28;20400;-34
2022/09/09 04:47:01;;;;;;;;;;;;;;;14.24;97.24;100678.06;5117522;28;19960;-34
2022/09/09 04:49:26;;;;;;;;;;;;;;;14.24;97.39;100681.63;5116820;28;20002;-34
2022/09/09 04:51:51;;;;;;;;;;;;;;;14.24;97.17;100688.94;5117335;28;19919;-34
2022/09/09 04:54:17;;;;;;;;;;;;;;;14.24;98.69;100680.78;5116670;28;19912;-34
2022/09/09 04:56:43;;;;;;;;;;;;;;;14.26;97.84;100684.09;5116997;28;19922;-34
2022/09/09 04:59:09;;;;;;;;;;;;;;;14.26;98.08;100678.66;5116197;28;19916;-34
2022/09/09 05:01:35;;;;;;;;;;;;;;;14.24;98.57;100676.16;5116482;28;20010;-35
2022/09/09 05:04:01;;;;;;;;;;;;;;;14.22;98.95;100672.09;5115414;28;19911;-35
2022/09/09 05:06:27;;;;;;;;;;;;;;;14.22;98.05;100675.63;5116094;28;19911;-35
2022/09/09 05:08:52;;;;;;;;;;;;;;;14.23;98.06;100673.72;5114787;28;19931;-35
2022/09/09 05:11:24;;;;;;;;;;;;;;;14.23;99.70;100671.00;5116424;28;19912;-35
2022/09/09 05:13:50;;;;;;;;;;;;;;;14.24;97.84;100676.16;5115518;28;19912;-35
2022/09/09 05:16:15;;;;;;;;;;;;;;;14.25;99.62;100677.00;5115876;28;19923;-35
2022/09/09 05:18:42;;;;;;;;;;;;;;;14.25;100.00;100671.56;5115780;28;20289;-35
2022/09/09 05:21:08;;;;;;;;;;;;;;;14.25;100.00;100672.41;5116604;28;19965;-35
2022/09/09 05:23:33;;;;;;;;;;;;;;;14.25;100.00;100672.41;5116131;28;19915;-35
2022/09/09 05:25:59;;;;;;;;;;;;;;;14.27;100.00;100666.69;5116033;28;19919;-35
2022/09/09 05:28:25;;;;;;;;;;;;;;;14.28;100.00;100657.44;5116787;28;19911;-35
2022/09/09 05:31:00;;;;;;;;;;;;;;;14.29;100.00;100667.22;5116047;28;19912;-35
2022/09/09 05:33:26;;;;;;;;;;;;;;;14.29;100.00;100659.06;5115975;28;19916;-35
2022/09/09 05:35:58;;;;;;;;;;;;;;;14.32;100.00;100655.84;5116233;28;19918;-35
2022/09/09 05:38:25;;;;;;;;;;;;;;;14.36;99.97;100648.81;5116647;28;19919;-35
2022/09/09 05:40:51;;;;;;;;;;;;;;;14.40;100.00;100652.66;5116453;28;19934;-35
2022/09/09 05:43:17;;;;;;;;;;;;;;;14.43;100.00;100657.56;5115997;28;20007;-35
2022/09/09 05:45:42;;;;;;;;;;;;;;;14.42;100.00;100666.81;5116371;28;19955;-35
2022/09/09 05:48:07;;;;;;;;;;;;;;;14.42;100.00;100666.81;5116408;28;19963;-35
2022/09/09 05:50:32;;;;;;;;;;;;;;;14.44;100.00;100670.06;5115729;28;19951;-35
2022/09/09 05:52:58;;;;;;;;;;;;;;;14.46;100.00;100678.81;5116327;28;19911;-35
2022/09/09 05:55:25;;;;;;;;;;;;;;;14.50;100.00;100674.53;5115310;28;19915;-35
2022/09/09 05:57:51;;;;;;;;;;;;;;;14.56;100.00;100675.38;5116198;28;19911;-35
2022/09/09 06:00:17;;;;;;;;;;;;;;;14.63;100.00;100675.94;5115554;28;19911;-35
2022/09/09 06:02:42;;;;;;;;;;;;;;;14.71;100.00;100677.38;5116352;28;19931;-35
2022/09/09 06:05:08;;;;;;;;;;;;;;;14.74;100.00;100685.00;5116053;28;19911;-35
2022/09/09 06:07:33;;;;;;;;;;;;;;;14.76;100.00;100677.41;5115589;28;20002;-35
2022/09/09 06:09:58;;;;;;;;;;;;;;;14.78;100.00;100683.41;5115170;28;20362;-35
2022/09/09 06:12:25;;;;;;;;;;;;;;;14.80;100.00;100686.69;5115541;28;19934;-35
2022/09/09 06:14:51;;;;;;;;;;;;;;;14.87;100.00;100684.53;5114814;28;20432;-35
2022/09/09 06:17:16;;;;;;;;;;;;;;;14.95;100.00;100670.44;5114739;28;20323;-35
2022/09/09 06:19:42;;;;;;;;;;;;;;;15.02;100.00;100684.63;5115044;28;20025;-35
2022/09/09 06:22:07;;;;;;;;;;;;;;;15.05;100.00;100680.56;5115498;28;19915;-35
2022/09/09 06:24:32;;;;;;;;;;;;;;;15.09;100.00;100693.41;5115160;28;20317;-35
2022/09/09 06:26:57;;;;;;;;;;;;;;;15.12;100.00;100681.13;5114376;28;19922;-35
2022/09/09 06:29:23;;;;;;;;;;;;;;;15.13;100.00;100690.97;5114543;28;19912;-35
2022/09/09 06:31:48;;;;;;;;;;;;;;;15.16;100.00;100683.06;5115178;28;19911;-35
2022/09/09 06:34:14;;;;;;;;;;;;;;;15.20;100.00;100681.47;5114364;28;20383;-35
2022/09/09 06:36:39;;;;;;;;;;;;;;;15.22;100.00;100685.81;5114965;28;20469;-35
2022/09/09 06:39:06;;;;;;;;;;;;;;;15.22;100.00;100686.63;5114640;28;20282;-35
2022/09/09 06:41:32;;;;;;;;;;;;;;;15.18;100.00;100691.81;5114689;28;19912;-34
2022/09/09 06:43:57;;;;;;;;;;;;;;;15.17;100.00;100684.69;5114158;28;19962;-34
2022/09/09 06:46:27;;;;;;;;;;;;;;;15.18;100.00;100680.91;5114257;28;19965;-35
2022/09/09 06:48:55;;;;;;;;;;;;;;;15.23;100.00;100677.41;5115003;28;19961;-35
2022/09/09 06:51:21;;;;;;;;;;;;;;;15.29;100.00;100680.97;5113992;28;20014;-34
2022/09/09 06:53:47;;;;;;;;;;;;;;;15.33;100.00;100672.00;5114724;28;19911;-35
2022/09/09 06:56:22;;;;;;;;;;;;;;;15.38;100.00;100665.75;5114616;28;20002;-35
2022/09/09 06:58:48;;;;;;;;;;;;;;;15.38;100.00;100671.19;5114852;28;20098;-34
2022/09/09 07:01:18;;;;;;;;;;;;;;;15.42;100.00;100675.84;5114185;28;19950;-34
2022/09/09 07:03:47;;;;;;;;;;;;;;;15.46;100.00;100673.38;5114747;28;19972;-35
2022/09/09 07:06:19;;;;;;;;;;;;;;;15.54;100.00;100672.06;5114594;28;19994;-35
2022/09/09 07:08:48;;;;;;;;;;;;;;;15.59;100.00;100678.34;5114552;28;20328;-35
2022/09/09 07:11:13;;;;;;;;;;;;;;;15.62;100.00;100675.09;5114265;28;20002;-35
2022/09/09 07:13:38;;;;;;;;;;;;;;;15.67;100.00;100669.69;5114209;28;19963;-35
2022/09/09 07:16:07;;;;;;;;;;;;;;;15.69;99.74;100666.66;5113672;28;20097;-34
2022/09/09 07:18:33;;;;;;;;;;;;;;;15.70;99.84;100671.84;5114639;27;19934;-35
2022/09/09 07:20:58;;;;;;;;;;;;;;;15.72;100.00;100673.50;5113889;28;20414;-34
2022/09/09 07:23:24;;;;;;;;;;;;;;;15.80;99.47;100675.69;5114657;28;19962;-35
2022/09/09 07:25:50;;;;;;;;;;;;;;;15.82;99.19;100668.06;5113827;28;19912;-35
2022/09/09 07:28:15;;;;;;;;;;;;;;;15.88;99.54;100669.72;5113817;28;19935;-35
2022/09/09 07:30:41;;;;;;;;;;;;;;;15.96;98.83;100664.53;5114430;28;19918;-34
2022/09/09 07:33:06;;;;;;;;;;;;;;;16.05;98.53;100662.06;5112099;28;19912;-35
2022/09/09 07:35:31;;;;;;;;;;;;;;;16.15;98.31;100656.66;5113703;28;19958;-35
2022/09/09 07:37:57;;;;;;;;;;;;;;;16.25;97.42;100660.44;5113158;28;19912;-35
2022/09/09 07:40:22;;;;;;;;;;;;;;;16.29;97.10;100658.81;5113929;28;19994;-35
2022/09/09 07:42:48;;;;;;;;;;;;;;;16.28;96.78;100671.63;5114344;28;20011;-34
2022/09/09 07:45:14;;;;;;;;;;;;;;;16.21;95.48;100677.38;5113995;28;19912;-35
2022/09/09 07:47:39;;;;;;;;;;;;;;;16.14;95.44;100676.81;5113859;28;19911;-34
2022/09/09 07:50:04;;;;;;;;;;;;;;;16.07;95.26;100670.81;5113521;28;19922;-35
2022/09/09 07:52:29;;;;;;;;;;;;;;;16.06;95.59;100684.75;5114071;28;19912;-34
2022/09/09 07:54:56;;;;;;;;;;;;;;;16.05;95.53;100675.72;5113535;28;19916;-34
2022/09/09 07:57:21;;;;;;;;;;;;;;;16.08;95.88;100677.91;5113822;28;19912;-35
2022/09/09 07:59:46;;;;;;;;;;;;;;;16.11;96.02;100677.38;5113446;28;19994;-35
2022/09/09 08:02:11;;;;;;;;;;;;;;;16.12;96.30;100676.28;5113525;28;19912;-35
2022/09/09 08:04:37;;;;;;;;;;;;;;;16.14;95.54;100671.34;5113705;28;20371;-35
2022/09/09 08:07:03;;;;;;;;;;;;;;;16.20;95.93;100678.47;5113005;28;19912;-34
2022/09/09 08:09:28;;;;;;;;;;;;;;;16.23;95.60;100675.19;5113611;28;20306;-34
2022/09/09 08:11:56;;;;;;;;;;;;;;;16.26;94.73;100678.47;5113518;28;19912;-35
2022/09/09 08:14:21;;;;;;;;;;;;;;;16.30;94.89;100674.94;5113250;28;19912;-35
2022/09/09 08:16:48;;;;;;;;;;;;;;;16.32;94.30;100682.84;5113798;28;20040;-35
2022/09/09 08:19:14;;;;;;;;;;;;;;;16.31;94.55;100678.47;5113344;28;19911;-35
2022/09/09 08:21:40;;;;;;;;;;;;;;;16.35;94.64;100677.66;5113545;28;20356;-35
2022/09/09 08:24:06;;;;;;;;;;;;;;;16.36;95.18;100676.56;5113291;28;19980;-34
2022/09/09 08:26:34;;;;;;;;;;;;;;;16.40;95.11;100682.28;5113349;28;19912;-35
2022/09/09 08:29:00;;;;;;;;;;;;;;;16.41;93.77;100681.19;5113586;28;20385;-35
2022/09/09 08:31:28;;;;;;;;;;;;;;;16.45;93.97;100676.84;5113157;28;19919;-35
2022/09/09 08:33:53;;;;;;;;;;;;;;;16.51;93.39;100680.38;5113381;28;19911;-35
2022/09/09 08:36:20;;;;;;;;;;;;;;;16.57;93.31;100685.53;5113524;28;19972;-34
2022/09/09 08:38:50;;;;;;;;;;;;;;;16.63;92.12;100689.91;5113525;28;19916;-35
2022/09/09 08:41:21;;;;;;;;;;;;;;;16.70;91.31;100690.44;5112914;28;19923;-34
2022/09/09 08:43:48;;;;;;;;;;;;;;;16.77;91.38;100684.72;5113140;28;19983;-35
2022/09/09 08:46:32;;;;;;;;;;;;;;;16.83;90.05;100691.81;5113083;28;19911;-35
2022/09/09 08:49:13;;;;;;;;;;;;;;;16.85;89.52;100686.09;5113305;28;20348;-34
2022/09/09 08:51:39;;;;;;;;;;;;;;;16.83;89.98;100691.81;5117132;28;19912;-35
2022/09/09 08:54:04;;;;;;;;;;;;;;;16.80;89.40;100692.38;5116966;28;19912;-35
2022/09/09 08:56:31;;;;;;;;;;;;;;;16.80;90.35;100691.56;5116885;28;19912;-35
2022/09/09 08:58:58;;;;;;;;;;;;;;;16.81;90.42;100693.19;5116051;28;20383;-35
2022/09/09 09:01:23;;;;;;;;;;;;;;;16.76;90.50;100702.22;5116551;28;19912;-35
2022/09/09 09:03:57;;;;;;;;;;;;;;;16.75;89.98;100700.56;5116903;28;19912;-35
2022/09/09 09:06:36;;;;;;;;;;;;;;;16.68;89.71;100700.81;5116901;28;20356;-35
2022/09/09 09:09:20;;;;;;;;;;;;;;;16.67;89.90;100707.38;5117285;28;19916;-35
2022/09/09 09:11:50;;;;;;;;;;;;;;;16.70;91.13;100706.81;5116753;28;19916;-34
2022/09/09 09:14:23;;;;;;;;;;;;;;;16.77;90.69;100712.03;5116813;28;20216;-35
2022/09/09 09:16:52;;;;;;;;;;;;;;;16.82;90.83;100703.00;5117076;28;19911;-35
2022/09/09 09:19:17;;;;;;;;;;;;;;;16.80;89.26;100706.03;5116184;28;19911;-34
2022/09/09 09:21:43;;;;;;;;;;;;;;;16.82;89.68;100703.81;5116335;28;19989;-35
2022/09/09 09:24:19;;;;;;;;;;;;;;;16.83;89.80;100710.91;5116157;28;19919;-35
2022/09/09 09:26:44;;;;;;;;;;;;;;;16.85;88.92;100711.47;5116598;27;19915;-35
2022/09/09 09:29:12;;;;;;;;;;;;;;;16.87;89.30;100705.72;5114500;28;19973;-35
2022/09/09 09:31:37;;;;;;;;;;;;;;;16.89;89.33;100712.56;5116159;28;19916;-35
2022/09/09 09:34:02;;;;;;;;;;;;;;;16.91;89.33;100704.91;5115984;28;19911;-35
2022/09/09 09:36:35;;;;;;;;;;;;;;;16.92;89.20;100708.44;5115890;28;20360;-35
2022/09/09 09:39:01;;;;;;;;;;;;;;;16.92;88.57;100708.44;5115623;28;19954;-35
2022/09/09 09:41:30;;;;;;;;;;;;;;;16.90;88.53;100718.84;5115758;28;20070;-35
2022/09/09 09:43:56;;;;;;;;;;;;;;;16.86;87.54;100715.84;5115743;28;19911;-35
2022/09/09 09:46:26;;;;;;;;;;;;;;;16.89;87.96;100714.47;5115442;28;20329;-35
2022/09/09 09:49:05;;;;;;;;;;;;;;;16.94;88.15;100707.09;5116155;28;20294;-35
2022/09/09 09:51:32;;;;;;;;;;;;;;;16.99;88.70;100714.47;5115422;28;19915;-35
2022/09/09 09:54:18;;;;;;;;;;;;;;;17.04;88.54;100711.72;5115508;28;20263;-35
2022/09/09 09:56:44;;;;;;;;;;;;;;;17.09;88.30;100710.88;5115846;28;19916;-35
2022/09/09 09:59:27;;;;;;;;;;;;;;;17.04;88.15;100711.72;5114398;28;19918;-34
2022/09/09 10:01:52;;;;;;;;;;;;;;;17.05;88.89;100712.53;5114748;28;19947;-35
2022/09/09 10:04:20;;;;;;;;;;;;;;;17.07;88.71;100708.41;5115586;28;20388;-35
2022/09/09 10:06:46;;;;;;;;;;;;;;;17.10;88.83;100707.88;5115738;28;19968;-35
2022/09/09 10:09:28;;;;;;;;;;;;;;;17.09;88.82;100702.69;5115417;28;19915;-35
2022/09/09 10:11:53;;;;;;;;;;;;;;;17.06;89.64;100708.69;5116300;28;19982;-35
2022/09/09 10:14:35;;;;;;;;;;;;;;;17.01;90.13;100714.19;5115171;28;20363;-35
2022/09/09 10:17:27;;;;;;;;;;;;;;;16.86;91.05;100724.03;5115879;28;19911;-35
2022/09/09 10:20:16;;;;;;;;;;;;;;;16.70;92.73;100727.84;5115799;28;19912;-35
2022/09/09 10:22:46;;;;;;;;;;;;;;;16.59;94.04;100726.22;5115697;28;20385;-35
2022/09/09 10:25:21;;;;;;;;;;;;;;;16.52;95.02;100726.50;5115991;28;20263;-35
2022/09/09 10:27:56;;;;;;;;;;;;;;;16.51;96.25;100718.59;5115706;28;20002;-35
2022/09/09 10:30:24;;;;;;;;;;;;;;;16.51;97.22;100718.59;5116022;28;19911;-34
2022/09/09 10:32:55;;;;;;;;;;;;;;;16.57;98.09;100722.94;5115562;28;19934;-34
2022/09/09 10:35:45;;;;;;;;;;;;;;;16.64;97.26;100727.03;5114814;28;19980;-34
2022/09/09 10:38:16;;;;;;;;;;;;;;;16.66;97.31;100716.66;5114775;27;19912;-34
2022/09/09 10:41:11;;;;;;;;;;;;;;;16.64;97.18;100721.59;5115063;28;20449;-34
2022/09/09 10:43:55;;;;;;;;;;;;;;;16.61;96.87;100724.03;5097185;28;19918;-34
2022/09/09 10:46:38;;;;;;;;;;;;;;;16.52;96.66;100720.22;5114867;28;20378;-34
2022/09/09 10:49:14;;;;;;;;;;;;;;;16.53;97.00;100724.56;5114814;28;20311;-34
2022/09/09 10:52:06;;;;;;;;;;;;;;;16.55;97.46;100716.94;5114915;28;19911;-34
2022/09/09 10:54:50;;;;;;;;;;;;;;;16.61;98.28;100718.56;5110763;28;20377;-34
2022/09/09 10:57:24;;;;;;;;;;;;;;;16.60;97.08;100711.50;5114647;28;20275;-34
2022/09/09 10:59:53;;;;;;;;;;;;;;;16.62;97.13;100720.22;5114468;28;19918;-34
2022/09/09 11:02:28;;;;;;;;;;;;;;;16.67;97.91;100715.56;5114290;28;20002;-33
2022/09/09 11:04:57;;;;;;;;;;;;;;;16.72;97.38;100715.59;5114414;28;20087;-34
2022/09/09 11:07:32;;;;;;;;;;;;;;;16.71;97.61;100713.09;5114239;28;20011;-34
2022/09/09 11:10:01;;;;;;;;;;;;;;;16.70;96.72;100711.47;5114933;28;19934;-34
2022/09/09 11:12:27;;;;;;;;;;;;;;;16.68;96.99;100709.00;5114273;28;19915;-34
2022/09/09 11:14:57;;;;;;;;;;;;;;;16.71;96.72;100718.56;5114115;28;19960;-34
2022/09/09 11:17:24;;;;;;;;;;;;;;;16.75;97.33;100716.16;5113995;28;20007;-34
2022/09/09 11:19:49;;;;;;;;;;;;;;;16.73;96.80;100717.22;5114351;27;19941;-34
2022/09/09 11:22:25;;;;;;;;;;;;;;;16.80;97.02;100713.41;5113948;28;20382;-34
2022/09/09 11:24:54;;;;;;;;;;;;;;;16.92;97.82;100719.38;5114236;28;19974;-34
2022/09/09 11:27:32;;;;;;;;;;;;;;;16.97;97.23;100716.63;5114499;28;19912;-34
2022/09/09 11:29:57;;;;;;;;;;;;;;;17.01;97.09;100714.19;5114043;28;19934;-34
2022/09/09 11:32:41;;;;;;;;;;;;;;;17.09;97.25;100710.88;5114572;28;19981;-35
2022/09/09 11:35:21;;;;;;;;;;;;;;;17.23;96.90;100715.47;5114039;28;19912;-35
2022/09/09 11:37:46;;;;;;;;;;;;;;;17.29;96.24;100710.81;5114250;28;19912;-34
2022/09/09 11:40:15;;;;;;;;;;;;;;;17.29;95.77;100713.56;5113912;28;19912;-34
2022/09/09 11:42:41;;;;;;;;;;;;;;;17.24;96.08;100717.13;5114013;28;19998;-34
2022/09/09 11:45:11;;;;;;;;;;;;;;;17.17;95.92;100708.38;5114013;28;19912;-35
2022/09/09 11:47:36;;;;;;;;;;;;;;;17.09;95.53;100710.88;5114503;28;19912;-34
2022/09/09 11:50:28;;;;;;;;;;;;;;;17.06;95.69;100714.97;5113785;28;19911;-34
2022/09/09 11:53:03;;;;;;;;;;;;;;;16.93;95.58;100705.47;5113957;28;19918;-34
2022/09/09 11:55:36;;;;;;;;;;;;;;;16.91;96.18;100704.09;5113898;28;19912;-34
2022/09/09 11:58:08;;;;;;;;;;;;;;;16.92;96.94;100712.00;5114167;28;19912;-34
2022/09/09 12:00:36;;;;;;;;;;;;;;;16.94;97.11;100712.56;5114592;28;19971;-34
2022/09/09 12:03:02;;;;;;;;;;;;;;;16.92;96.56;100713.91;5114050;28;20363;-34
2022/09/09 12:05:42;;;;;;;;;;;;;;;16.94;96.47;100706.28;5114291;28;19926;-34
2022/09/09 12:08:09;;;;;;;;;;;;;;;16.98;96.24;100713.66;5114624;28;20017;-34
2022/09/09 12:10:36;;;;;;;;;;;;;;;17.04;96.03;100706.25;5113921;28;19955;-34
2022/09/09 12:13:27;;;;;;;;;;;;;;;17.16;97.12;100704.00;5114278;28;19912;-34
2022/09/09 12:15:56;;;;;;;;;;;;;;;17.24;96.09;100713.56;5109874;28;20351;-34
2022/09/09 12:18:33;;;;;;;;;;;;;;;17.28;95.78;100711.09;5114516;28;19916;-34
2022/09/09 12:21:08;;;;;;;;;;;;;;;17.30;95.21;100706.97;5113647;28;19935;-34
2022/09/09 12:23:41;;;;;;;;;;;;;;;17.46;95.55;100705.81;5114644;28;19940;-34
2022/09/09 12:26:32;;;;;;;;;;;;;;;17.68;94.83;100704.63;5117242;28;20363;-34
2022/09/09 12:28:57;;;;;;;;;;;;;;;17.76;93.11;100701.31;5118018;28;19959;-34
2022/09/09 12:31:32;;;;;;;;;;;;;;;17.81;92.96;100698.53;5118008;28;19954;-34
2022/09/09 12:34:09;;;;;;;;;;;;;;;17.80;92.23;100701.56;5117425;28;19912;-34
2022/09/09 12:36:35;;;;;;;;;;;;;;;17.80;91.88;100693.38;5117482;28;19971;-34
2022/09/09 12:39:10;;;;;;;;;;;;;;;17.89;92.18;100691.69;5117273;28;19912;-34
2022/09/09 12:41:36;;;;;;;;;;;;;;;18.07;91.00;100691.00;5117861;28;20010;-34
2022/09/09 12:44:08;;;;;;;;;;;;;;;18.17;90.71;100696.41;5117774;28;19956;-34
2022/09/09 12:46:38;;;;;;;;;;;;;;;18.30;90.44;100686.75;5116884;28;19998;-34